Miami, Florida
Current Conditions -  °F | °C
As of 5:53 PM on Thursday 23 Oct 2014 (Local Time) from KMIA Reporting Station
Broken Clouds Broken Clouds  
Wind Chill: 24°   Ceiling: 4500
Heat Index: 24°   Visibility: 10mi
Dew Point: 22°   Wind: 9mph
Humidity: 85%   Direction: 30°NNE
Pressure: 29.87"   Gusts: NA
Location:  25.77°N, 80.19°W
Report Text: KMIA 232153Z 03008KT 10SM FEW012 SCT024 BKN045 24/22 A2987 RMK AO2 RAE37 SLP115 P0000 T02440217
Loading
Personal Weather Stations






























Interactive Weather Map New forecast layout! Learn more

10-Day Weather Forecast

Advertisements
Track Severe Weather on mobile